sensor_id;sensor_type;location;lat;lon;timestamp;P1;durP1;ratioP1;P2;durP2;ratioP2
64641;SDS011;59936;51.490;5.436;2023-07-29T00:05:19;10.10;;;6.10;;
64641;SDS011;59936;51.490;5.436;2023-07-29T00:07:48;7.20;;;6.40;;
64641;SDS011;59936;51.490;5.436;2023-07-29T00:10:17;7.90;;;6.50;;
64641;SDS011;59936;51.490;5.436;2023-07-29T00:12:45;11.00;;;6.90;;
64641;SDS011;59936;51.490;5.436;2023-07-29T00:15:14;9.70;;;6.60;;
64641;SDS011;59936;51.490;5.436;2023-07-29T00:17:42;8.90;;;6.40;;
64641;SDS011;59936;51.490;5.436;2023-07-29T00:20:11;8.40;;;5.40;;
64641;SDS011;59936;51.490;5.436;2023-07-29T00:22:40;8.20;;;5.70;;
64641;SDS011;59936;51.490;5.436;2023-07-29T00:25:08;7.60;;;6.10;;
64641;SDS011;59936;51.490;5.436;2023-07-29T00:27:37;8.20;;;6.10;;
64641;SDS011;59936;51.490;5.436;2023-07-29T00:30:06;6.60;;;5.90;;
64641;SDS011;59936;51.490;5.436;2023-07-29T00:32:35;6.40;;;5.70;;
64641;SDS011;59936;51.490;5.436;2023-07-29T00:35:04;9.70;;;5.70;;
64641;SDS011;59936;51.490;5.436;2023-07-29T00:37:33;9.60;;;6.10;;
64641;SDS011;59936;51.490;5.436;2023-07-29T00:40:02;6.90;;;6.20;;
64641;SDS011;59936;51.490;5.436;2023-07-29T00:42:30;11.20;;;5.90;;
64641;SDS011;59936;51.490;5.436;2023-07-29T00:44:59;10.70;;;6.10;;
64641;SDS011;59936;51.490;5.436;2023-07-29T00:47:28;6.60;;;5.90;;
64641;SDS011;59936;51.490;5.436;2023-07-29T00:49:56;7.90;;;5.90;;
64641;SDS011;59936;51.490;5.436;2023-07-29T00:52:25;7.20;;;6.30;;
64641;SDS011;59936;51.490;5.436;2023-07-29T00:54:53;5.80;;;4.90;;
64641;SDS011;59936;51.490;5.436;2023-07-29T00:57:22;6.30;;;5.10;;
64641;SDS011;59936;51.490;5.436;2023-07-29T00:59:53;9.70;;;6.10;;
64641;SDS011;59936;51.490;5.436;2023-07-29T01:02:22;10.50;;;5.90;;
64641;SDS011;59936;51.490;5.436;2023-07-29T01:04:51;9.40;;;6.40;;
64641;SDS011;59936;51.490;5.436;2023-07-29T01:07:30;17.10;;;6.70;;
64641;SDS011;59936;51.490;5.436;2023-07-29T01:10:02;10.50;;;6.90;;
64641;SDS011;59936;51.490;5.436;2023-07-29T01:12:51;8.00;;;6.90;;
64641;SDS011;59936;51.490;5.436;2023-07-29T01:18:42;10.10;;;7.10;;
64641;SDS011;59936;51.490;5.436;2023-07-29T01:21:16;10.40;;;7.90;;
64641;SDS011;59936;51.490;5.436;2023-07-29T01:23:45;10.90;;;7.60;;
64641;SDS011;59936;51.490;5.436;2023-07-29T01:26:14;11.50;;;8.70;;
64641;SDS011;59936;51.490;5.436;2023-07-29T01:28:42;9.70;;;8.60;;
64641;SDS011;59936;51.490;5.436;2023-07-29T01:36:57;10.40;;;8.60;;
64641;SDS011;59936;51.490;5.436;2023-07-29T01:39:31;11.10;;;7.90;;
64641;SDS011;59936;51.490;5.436;2023-07-29T01:42:05;13.00;;;9.00;;
64641;SDS011;59936;51.490;5.436;2023-07-29T01:44:34;10.60;;;9.00;;
64641;SDS011;59936;51.490;5.436;2023-07-29T01:47:04;8.50;;;6.80;;
64641;SDS011;59936;51.490;5.436;2023-07-29T01:49:33;7.40;;;5.90;;
64641;SDS011;59936;51.490;5.436;2023-07-29T01:52:01;9.80;;;6.00;;
64641;SDS011;59936;51.490;5.436;2023-07-29T01:54:30;9.60;;;5.90;;
64641;SDS011;59936;51.490;5.436;2023-07-29T01:56:58;7.10;;;5.70;;
64641;SDS011;59936;51.490;5.436;2023-07-29T01:59:27;5.10;;;4.60;;
64641;SDS011;59936;51.490;5.436;2023-07-29T02:01:56;6.90;;;4.80;;
64641;SDS011;59936;51.490;5.436;2023-07-29T02:04:24;6.30;;;5.20;;
64641;SDS011;59936;51.490;5.436;2023-07-29T02:06:53;6.80;;;5.20;;
64641;SDS011;59936;51.490;5.436;2023-07-29T02:09:21;4.90;;;4.50;;
64641;SDS011;59936;51.490;5.436;2023-07-29T02:11:50;5.10;;;4.60;;
64641;SDS011;59936;51.490;5.436;2023-07-29T02:14:18;5.30;;;4.40;;
64641;SDS011;59936;51.490;5.436;2023-07-29T02:16:47;5.40;;;4.90;;
64641;SDS011;59936;51.490;5.436;2023-07-29T02:19:15;6.90;;;4.50;;
64641;SDS011;59936;51.490;5.436;2023-07-29T02:21:44;9.20;;;4.50;;
64641;SDS011;59936;51.490;5.436;2023-07-29T02:24:13;5.60;;;4.30;;
64641;SDS011;59936;51.490;5.436;2023-07-29T02:26:41;6.80;;;4.50;;
64641;SDS011;59936;51.490;5.436;2023-07-29T02:29:10;6.70;;;4.00;;
64641;SDS011;59936;51.490;5.436;2023-07-29T02:31:38;5.50;;;4.60;;
64641;SDS011;59936;51.490;5.436;2023-07-29T02:34:07;4.10;;;3.70;;
64641;SDS011;59936;51.490;5.436;2023-07-29T02:36:36;4.20;;;3.80;;
64641;SDS011;59936;51.490;5.436;2023-07-29T02:39:04;5.30;;;4.10;;
64641;SDS011;59936;51.490;5.436;2023-07-29T02:41:33;5.90;;;4.50;;
64641;SDS011;59936;51.490;5.436;2023-07-29T02:44:01;5.00;;;4.20;;
64641;SDS011;59936;51.490;5.436;2023-07-29T02:46:30;5.30;;;4.00;;
64641;SDS011;59936;51.490;5.436;2023-07-29T02:48:58;4.90;;;4.40;;
64641;SDS011;59936;51.490;5.436;2023-07-29T02:51:27;5.10;;;4.60;;
64641;SDS011;59936;51.490;5.436;2023-07-29T02:53:56;4.70;;;4.30;;
64641;SDS011;59936;51.490;5.436;2023-07-29T02:56:25;6.60;;;4.70;;
64641;SDS011;59936;51.490;5.436;2023-07-29T02:58:53;7.50;;;4.70;;
64641;SDS011;59936;51.490;5.436;2023-07-29T03:01:22;6.30;;;5.30;;
64641;SDS011;59936;51.490;5.436;2023-07-29T03:03:51;6.10;;;5.10;;
64641;SDS011;59936;51.490;5.436;2023-07-29T03:06:19;6.00;;;5.40;;
64641;SDS011;59936;51.490;5.436;2023-07-29T03:08:48;9.80;;;5.60;;
64641;SDS011;59936;51.490;5.436;2023-07-29T03:11:17;6.60;;;5.40;;
64641;SDS011;59936;51.490;5.436;2023-07-29T03:13:45;6.80;;;5.40;;
64641;SDS011;59936;51.490;5.436;2023-07-29T03:16:15;7.10;;;5.50;;
64641;SDS011;59936;51.490;5.436;2023-07-29T03:18:46;7.00;;;5.60;;
64641;SDS011;59936;51.490;5.436;2023-07-29T03:21:16;7.20;;;5.50;;
64641;SDS011;59936;51.490;5.436;2023-07-29T03:23:45;7.10;;;5.80;;
64641;SDS011;59936;51.490;5.436;2023-07-29T03:26:13;8.50;;;5.10;;
64641;SDS011;59936;51.490;5.436;2023-07-29T03:28:42;6.70;;;6.00;;
64641;SDS011;59936;51.490;5.436;2023-07-29T03:31:11;7.00;;;5.30;;
64641;SDS011;59936;51.490;5.436;2023-07-29T03:33:40;5.80;;;4.80;;
64641;SDS011;59936;51.490;5.436;2023-07-29T03:36:08;8.20;;;5.60;;
64641;SDS011;59936;51.490;5.436;2023-07-29T03:38:37;7.90;;;5.60;;
64641;SDS011;59936;51.490;5.436;2023-07-29T03:41:08;6.30;;;5.20;;
64641;SDS011;59936;51.490;5.436;2023-07-29T03:43:37;7.50;;;5.60;;
64641;SDS011;59936;51.490;5.436;2023-07-29T03:46:06;6.50;;;5.00;;
64641;SDS011;59936;51.490;5.436;2023-07-29T03:48:34;5.80;;;5.10;;
64641;SDS011;59936;51.490;5.436;2023-07-29T03:51:03;6.00;;;5.40;;
64641;SDS011;59936;51.490;5.436;2023-07-29T03:53:32;7.50;;;5.70;;
64641;SDS011;59936;51.490;5.436;2023-07-29T03:56:00;7.40;;;5.30;;
64641;SDS011;59936;51.490;5.436;2023-07-29T03:58:29;6.20;;;5.40;;
64641;SDS011;59936;51.490;5.436;2023-07-29T04:00:57;5.70;;;5.20;;
64641;SDS011;59936;51.490;5.436;2023-07-29T04:03:26;7.20;;;5.30;;
64641;SDS011;59936;51.490;5.436;2023-07-29T04:05:54;6.50;;;5.70;;
64641;SDS011;59936;51.490;5.436;2023-07-29T04:08:23;8.00;;;5.90;;
64641;SDS011;59936;51.490;5.436;2023-07-29T04:10:52;5.70;;;5.10;;
64641;SDS011;59936;51.490;5.436;2023-07-29T04:13:20;5.80;;;5.20;;
64641;SDS011;59936;51.490;5.436;2023-07-29T04:15:49;7.50;;;5.20;;
64641;SDS011;59936;51.490;5.436;2023-07-29T04:18:17;7.40;;;5.60;;
64641;SDS011;59936;51.490;5.436;2023-07-29T04:20:46;10.20;;;5.30;;
64641;SDS011;59936;51.490;5.436;2023-07-29T04:23:15;10.00;;;5.00;;
64641;SDS011;59936;51.490;5.436;2023-07-29T04:25:43;8.60;;;5.50;;
64641;SDS011;59936;51.490;5.436;2023-07-29T04:28:12;7.30;;;5.30;;
64641;SDS011;59936;51.490;5.436;2023-07-29T04:30:40;6.00;;;4.90;;
64641;SDS011;59936;51.490;5.436;2023-07-29T04:33:09;4.80;;;4.40;;
64641;SDS011;59936;51.490;5.436;2023-07-29T04:35:38;4.70;;;3.80;;
64641;SDS011;59936;51.490;5.436;2023-07-29T04:38:06;5.20;;;4.70;;
64641;SDS011;59936;51.490;5.436;2023-07-29T04:40:35;8.20;;;4.90;;
64641;SDS011;59936;51.490;5.436;2023-07-29T04:43:04;6.40;;;4.70;;
64641;SDS011;59936;51.490;5.436;2023-07-29T04:45:32;4.70;;;4.30;;
64641;SDS011;59936;51.490;5.436;2023-07-29T04:48:01;4.40;;;3.80;;
64641;SDS011;59936;51.490;5.436;2023-07-29T04:50:29;5.00;;;4.20;;
64641;SDS011;59936;51.490;5.436;2023-07-29T04:52:58;5.20;;;4.30;;
64641;SDS011;59936;51.490;5.436;2023-07-29T04:55:27;6.60;;;3.90;;
64641;SDS011;59936;51.490;5.436;2023-07-29T04:57:55;5.30;;;4.30;;
64641;SDS011;59936;51.490;5.436;2023-07-29T05:00:24;4.50;;;4.10;;
64641;SDS011;59936;51.490;5.436;2023-07-29T05:02:52;4.50;;;4.10;;
64641;SDS011;59936;51.490;5.436;2023-07-29T05:05:21;4.30;;;3.90;;
64641;SDS011;59936;51.490;5.436;2023-07-29T05:07:49;3.80;;;3.50;;
64641;SDS011;59936;51.490;5.436;2023-07-29T05:10:18;4.10;;;3.70;;
64641;SDS011;59936;51.490;5.436;2023-07-29T05:12:47;3.90;;;3.60;;
64641;SDS011;59936;51.490;5.436;2023-07-29T05:15:15;6.20;;;3.60;;
64641;SDS011;59936;51.490;5.436;2023-07-29T05:17:44;7.60;;;4.10;;
64641;SDS011;59936;51.490;5.436;2023-07-29T05:20:13;5.30;;;3.60;;
64641;SDS011;59936;51.490;5.436;2023-07-29T05:22:41;8.70;;;4.00;;
64641;SDS011;59936;51.490;5.436;2023-07-29T05:25:10;6.80;;;4.00;;
64641;SDS011;59936;51.490;5.436;2023-07-29T05:27:38;5.40;;;3.70;;
64641;SDS011;59936;51.490;5.436;2023-07-29T05:30:07;4.30;;;3.60;;
64641;SDS011;59936;51.490;5.436;2023-07-29T05:32:36;3.60;;;3.30;;
64641;SDS011;59936;51.490;5.436;2023-07-29T05:35:05;3.90;;;3.50;;
64641;SDS011;59936;51.490;5.436;2023-07-29T05:37:34;5.70;;;3.60;;
64641;SDS011;59936;51.490;5.436;2023-07-29T05:40:03;5.50;;;4.00;;
64641;SDS011;59936;51.490;5.436;2023-07-29T05:42:32;5.40;;;3.20;;
64641;SDS011;59936;51.490;5.436;2023-07-29T05:45:01;4.10;;;3.20;;
64641;SDS011;59936;51.490;5.436;2023-07-29T05:47:30;4.20;;;3.70;;
64641;SDS011;59936;51.490;5.436;2023-07-29T05:49:59;5.40;;;3.50;;
64641;SDS011;59936;51.490;5.436;2023-07-29T05:52:27;5.40;;;4.00;;
64641;SDS011;59936;51.490;5.436;2023-07-29T05:54:56;6.70;;;3.90;;
64641;SDS011;59936;51.490;5.436;2023-07-29T05:57:25;4.70;;;3.50;;
64641;SDS011;59936;51.490;5.436;2023-07-29T05:59:53;4.60;;;3.40;;
64641;SDS011;59936;51.490;5.436;2023-07-29T06:02:22;3.60;;;3.10;;
64641;SDS011;59936;51.490;5.436;2023-07-29T06:04:50;4.70;;;4.10;;
64641;SDS011;59936;51.490;5.436;2023-07-29T06:07:19;7.40;;;3.70;;
64641;SDS011;59936;51.490;5.436;2023-07-29T06:09:48;4.10;;;3.20;;
64641;SDS011;59936;51.490;5.436;2023-07-29T06:12:16;3.70;;;3.40;;
64641;SDS011;59936;51.490;5.436;2023-07-29T06:14:45;4.30;;;3.90;;
64641;SDS011;59936;51.490;5.436;2023-07-29T06:17:13;7.50;;;3.40;;
64641;SDS011;59936;51.490;5.436;2023-07-29T06:19:42;3.60;;;3.30;;
64641;SDS011;59936;51.490;5.436;2023-07-29T06:22:10;6.90;;;3.55;;
64641;SDS011;59936;51.490;5.436;2023-07-29T06:24:39;3.40;;;2.90;;
64641;SDS011;59936;51.490;5.436;2023-07-29T06:27:08;5.40;;;3.30;;
64641;SDS011;59936;51.490;5.436;2023-07-29T06:29:36;4.40;;;3.90;;
64641;SDS011;59936;51.490;5.436;2023-07-29T06:32:05;6.10;;;4.00;;
64641;SDS011;59936;51.490;5.436;2023-07-29T06:34:34;9.40;;;3.70;;
64641;SDS011;59936;51.490;5.436;2023-07-29T06:37:02;3.30;;;2.70;;
64641;SDS011;59936;51.490;5.436;2023-07-29T06:39:31;3.85;;;3.10;;
64641;SDS011;59936;51.490;5.436;2023-07-29T06:42:00;4.10;;;3.30;;
64641;SDS011;59936;51.490;5.436;2023-07-29T06:44:28;3.10;;;2.90;;
64641;SDS011;59936;51.490;5.436;2023-07-29T06:46:57;3.60;;;3.30;;
64641;SDS011;59936;51.490;5.436;2023-07-29T06:49:26;3.10;;;2.90;;
64641;SDS011;59936;51.490;5.436;2023-07-29T06:51:55;3.20;;;2.90;;
64641;SDS011;59936;51.490;5.436;2023-07-29T06:54:24;3.45;;;3.15;;
64641;SDS011;59936;51.490;5.436;2023-07-29T06:56:53;3.50;;;3.20;;
64641;SDS011;59936;51.490;5.436;2023-07-29T06:59:22;3.90;;;2.70;;
64641;SDS011;59936;51.490;5.436;2023-07-29T07:01:50;3.30;;;3.00;;
64641;SDS011;59936;51.490;5.436;2023-07-29T07:04:19;4.20;;;2.70;;
64641;SDS011;59936;51.490;5.436;2023-07-29T07:06:48;3.35;;;2.60;;
64641;SDS011;59936;51.490;5.436;2023-07-29T07:09:16;2.90;;;2.70;;
64641;SDS011;59936;51.490;5.436;2023-07-29T07:11:45;4.00;;;3.10;;
64641;SDS011;59936;51.490;5.436;2023-07-29T07:14:13;2.90;;;2.70;;
64641;SDS011;59936;51.490;5.436;2023-07-29T07:16:42;4.50;;;3.00;;
64641;SDS011;59936;51.490;5.436;2023-07-29T07:19:10;4.50;;;2.80;;
64641;SDS011;59936;51.490;5.436;2023-07-29T07:21:39;3.00;;;2.70;;
64641;SDS011;59936;51.490;5.436;2023-07-29T07:24:08;3.00;;;2.70;;
64641;SDS011;59936;51.490;5.436;2023-07-29T07:26:36;3.10;;;2.80;;
64641;SDS011;59936;51.490;5.436;2023-07-29T07:29:05;4.50;;;3.00;;
64641;SDS011;59936;51.490;5.436;2023-07-29T07:31:34;3.10;;;2.80;;
64641;SDS011;59936;51.490;5.436;2023-07-29T07:34:02;5.40;;;2.40;;
64641;SDS011;59936;51.490;5.436;2023-07-29T07:36:31;2.30;;;2.20;;
64641;SDS011;59936;51.490;5.436;2023-07-29T07:38:59;2.80;;;2.50;;
64641;SDS011;59936;51.490;5.436;2023-07-29T07:41:28;1.90;;;1.80;;
64641;SDS011;59936;51.490;5.436;2023-07-29T07:43:56;3.30;;;2.90;;
64641;SDS011;59936;51.490;5.436;2023-07-29T07:46:25;2.70;;;2.50;;
64641;SDS011;59936;51.490;5.436;2023-07-29T07:48:54;2.80;;;2.50;;
64641;SDS011;59936;51.490;5.436;2023-07-29T07:51:22;3.10;;;2.60;;
64641;SDS011;59936;51.490;5.436;2023-07-29T07:53:51;2.00;;;1.60;;
64641;SDS011;59936;51.490;5.436;2023-07-29T07:56:20;5.60;;;2.50;;
64641;SDS011;59936;51.490;5.436;2023-07-29T07:58:48;2.70;;;2.50;;
64641;SDS011;59936;51.490;5.436;2023-07-29T08:01:17;2.50;;;2.30;;
64641;SDS011;59936;51.490;5.436;2023-07-29T08:03:45;2.60;;;2.40;;
64641;SDS011;59936;51.490;5.436;2023-07-29T08:06:14;2.20;;;2.00;;
64641;SDS011;59936;51.490;5.436;2023-07-29T08:08:42;1.90;;;1.80;;
64641;SDS011;59936;51.490;5.436;2023-07-29T08:11:11;4.10;;;1.40;;
64641;SDS011;59936;51.490;5.436;2023-07-29T08:13:39;3.00;;;2.00;;
64641;SDS011;59936;51.490;5.436;2023-07-29T08:16:08;2.40;;;1.90;;
64641;SDS011;59936;51.490;5.436;2023-07-29T08:18:37;4.30;;;1.80;;
64641;SDS011;59936;51.490;5.436;2023-07-29T08:21:05;2.60;;;1.60;;
64641;SDS011;59936;51.490;5.436;2023-07-29T08:23:34;2.60;;;1.90;;
64641;SDS011;59936;51.490;5.436;2023-07-29T08:26:05;3.90;;;1.90;;
64641;SDS011;59936;51.490;5.436;2023-07-29T08:28:34;2.30;;;1.60;;
64641;SDS011;59936;51.490;5.436;2023-07-29T08:31:06;5.80;;;2.60;;
64641;SDS011;59936;51.490;5.436;2023-07-29T08:33:35;1.70;;;1.60;;
64641;SDS011;59936;51.490;5.436;2023-07-29T08:36:03;2.60;;;1.90;;
64641;SDS011;59936;51.490;5.436;2023-07-29T08:38:32;2.80;;;1.70;;
64641;SDS011;59936;51.490;5.436;2023-07-29T08:43:52;2.90;;;2.00;;
64641;SDS011;59936;51.490;5.436;2023-07-29T08:46:34;2.95;;;2.10;;
64641;SDS011;59936;51.490;5.436;2023-07-29T08:49:03;4.70;;;1.90;;
64641;SDS011;59936;51.490;5.436;2023-07-29T08:51:32;2.70;;;2.50;;
64641;SDS011;59936;51.490;5.436;2023-07-29T08:54:02;4.00;;;2.20;;
64641;SDS011;59936;51.490;5.436;2023-07-29T08:56:31;2.00;;;1.80;;
64641;SDS011;59936;51.490;5.436;2023-07-29T08:59:00;2.10;;;1.90;;
64641;SDS011;59936;51.490;5.436;2023-07-29T09:01:30;1.80;;;1.70;;
64641;SDS011;59936;51.490;5.436;2023-07-29T09:03:58;2.00;;;1.90;;
64641;SDS011;59936;51.490;5.436;2023-07-29T09:06:27;2.20;;;2.00;;
64641;SDS011;59936;51.490;5.436;2023-07-29T09:08:56;2.10;;;1.90;;
64641;SDS011;59936;51.490;5.436;2023-07-29T09:11:27;2.20;;;2.00;;
64641;SDS011;59936;51.490;5.436;2023-07-29T09:14:00;1.40;;;1.30;;
64641;SDS011;59936;51.490;5.436;2023-07-29T09:16:29;3.00;;;1.80;;
64641;SDS011;59936;51.490;5.436;2023-07-29T09:19:00;1.60;;;1.50;;
64641;SDS011;59936;51.490;5.436;2023-07-29T09:21:30;1.70;;;1.60;;
64641;SDS011;59936;51.490;5.436;2023-07-29T09:24:03;1.50;;;1.50;;
64641;SDS011;59936;51.490;5.436;2023-07-29T09:26:32;1.70;;;1.60;;
64641;SDS011;59936;51.490;5.436;2023-07-29T09:29:00;1.60;;;1.50;;
64641;SDS011;59936;51.490;5.436;2023-07-29T09:31:29;1.70;;;1.60;;
64641;SDS011;59936;51.490;5.436;2023-07-29T09:33:58;3.10;;;2.20;;
64641;SDS011;59936;51.490;5.436;2023-07-29T09:36:30;1.60;;;1.50;;
64641;SDS011;59936;51.490;5.436;2023-07-29T09:39:00;1.90;;;1.70;;
64641;SDS011;59936;51.490;5.436;2023-07-29T09:41:30;2.30;;;1.80;;
64641;SDS011;59936;51.490;5.436;2023-07-29T09:43:59;2.00;;;1.90;;
64641;SDS011;59936;51.490;5.436;2023-07-29T09:46:34;2.80;;;1.90;;
64641;SDS011;59936;51.490;5.436;2023-07-29T09:49:05;2.10;;;2.00;;
64641;SDS011;59936;51.490;5.436;2023-07-29T09:51:39;2.50;;;1.90;;
64641;SDS011;59936;51.490;5.436;2023-07-29T09:54:08;2.00;;;1.90;;
64641;SDS011;59936;51.490;5.436;2023-07-29T09:56:39;2.20;;;2.00;;
64641;SDS011;59936;51.490;5.436;2023-07-29T09:59:10;1.90;;;1.80;;
64641;SDS011;59936;51.490;5.436;2023-07-29T10:01:39;1.80;;;1.70;;
64641;SDS011;59936;51.490;5.436;2023-07-29T10:04:08;3.90;;;2.00;;
64641;SDS011;59936;51.490;5.436;2023-07-29T10:06:38;2.50;;;1.90;;
64641;SDS011;59936;51.490;5.436;2023-07-29T10:09:10;2.40;;;2.20;;
64641;SDS011;59936;51.490;5.436;2023-07-29T10:11:40;2.60;;;2.00;;
64641;SDS011;59936;51.490;5.436;2023-07-29T10:14:10;2.90;;;1.90;;
64641;SDS011;59936;51.490;5.436;2023-07-29T10:16:39;2.50;;;2.30;;
64641;SDS011;59936;51.490;5.436;2023-07-29T10:19:08;2.70;;;1.80;;
64641;SDS011;59936;51.490;5.436;2023-07-29T10:21:38;3.20;;;2.10;;
64641;SDS011;59936;51.490;5.436;2023-07-29T10:24:09;1.90;;;1.60;;
64641;SDS011;59936;51.490;5.436;2023-07-29T10:26:46;2.10;;;2.00;;
64641;SDS011;59936;51.490;5.436;2023-07-29T10:29:21;2.80;;;1.80;;
64641;SDS011;59936;51.490;5.436;2023-07-29T10:31:52;2.40;;;2.20;;
64641;SDS011;59936;51.490;5.436;2023-07-29T10:34:22;2.60;;;2.00;;
64641;SDS011;59936;51.490;5.436;2023-07-29T10:36:54;2.10;;;1.90;;
64641;SDS011;59936;51.490;5.436;2023-07-29T10:39:27;1.90;;;1.80;;
64641;SDS011;59936;51.490;5.436;2023-07-29T10:42:07;2.10;;;1.90;;
64641;SDS011;59936;51.490;5.436;2023-07-29T10:49:48;1.90;;;1.80;;
64641;SDS011;59936;51.490;5.436;2023-07-29T10:55:04;2.60;;;2.20;;
64641;SDS011;59936;51.490;5.436;2023-07-29T10:58:07;2.75;;;2.10;;
64641;SDS011;59936;51.490;5.436;2023-07-29T11:00:43;1.90;;;1.80;;
64641;SDS011;59936;51.490;5.436;2023-07-29T11:03:13;2.20;;;2.00;;
64641;SDS011;59936;51.490;5.436;2023-07-29T11:05:46;4.80;;;2.20;;
64641;SDS011;59936;51.490;5.436;2023-07-29T11:08:22;2.70;;;2.00;;
64641;SDS011;59936;51.490;5.436;2023-07-29T11:13:36;1.90;;;1.80;;
64641;SDS011;59936;51.490;5.436;2023-07-29T11:16:09;2.30;;;2.10;;
64641;SDS011;59936;51.490;5.436;2023-07-29T11:18:38;2.30;;;2.10;;
64641;SDS011;59936;51.490;5.436;2023-07-29T11:21:08;3.10;;;2.30;;
64641;SDS011;59936;51.490;5.436;2023-07-29T11:23:36;4.60;;;2.10;;
64641;SDS011;59936;51.490;5.436;2023-07-29T11:26:05;2.30;;;2.10;;
64641;SDS011;59936;51.490;5.436;2023-07-29T11:28:38;2.10;;;2.00;;
64641;SDS011;59936;51.490;5.436;2023-07-29T11:31:07;2.40;;;2.00;;
64641;SDS011;59936;51.490;5.436;2023-07-29T11:33:38;4.10;;;2.00;;
64641;SDS011;59936;51.490;5.436;2023-07-29T11:36:16;2.00;;;1.80;;
64641;SDS011;59936;51.490;5.436;2023-07-29T11:38:46;2.00;;;1.90;;
64641;SDS011;59936;51.490;5.436;2023-07-29T11:41:19;2.10;;;1.90;;
64641;SDS011;59936;51.490;5.436;2023-07-29T11:43:48;2.10;;;1.90;;
64641;SDS011;59936;51.490;5.436;2023-07-29T11:46:20;3.10;;;2.10;;
64641;SDS011;59936;51.490;5.436;2023-07-29T11:48:50;2.20;;;2.10;;
64641;SDS011;59936;51.490;5.436;2023-07-29T11:51:19;2.10;;;1.90;;
64641;SDS011;59936;51.490;5.436;2023-07-29T11:53:47;2.40;;;2.00;;
64641;SDS011;59936;51.490;5.436;2023-07-29T11:56:17;2.50;;;2.30;;
64641;SDS011;59936;51.490;5.436;2023-07-29T11:58:45;3.90;;;2.10;;
64641;SDS011;59936;51.490;5.436;2023-07-29T12:01:14;2.00;;;1.90;;
64641;SDS011;59936;51.490;5.436;2023-07-29T12:03:43;2.15;;;2.05;;
64641;SDS011;59936;51.490;5.436;2023-07-29T12:06:11;2.90;;;2.40;;
64641;SDS011;59936;51.490;5.436;2023-07-29T12:08:41;2.50;;;2.30;;
64641;SDS011;59936;51.490;5.436;2023-07-29T12:11:10;2.90;;;2.30;;
64641;SDS011;59936;51.490;5.436;2023-07-29T12:13:41;2.80;;;2.60;;
64641;SDS011;59936;51.490;5.436;2023-07-29T12:16:16;4.68;;;3.08;;
64641;SDS011;59936;51.490;5.436;2023-07-29T12:18:49;8.10;;;3.80;;
64641;SDS011;59936;51.490;5.436;2023-07-29T12:21:18;5.50;;;3.10;;
64641;SDS011;59936;51.490;5.436;2023-07-29T12:23:47;5.60;;;3.95;;
64641;SDS011;59936;51.490;5.436;2023-07-29T12:26:18;6.00;;;3.40;;
64641;SDS011;59936;51.490;5.436;2023-07-29T12:28:46;5.70;;;3.40;;
64641;SDS011;59936;51.490;5.436;2023-07-29T12:31:15;2.90;;;2.70;;
64641;SDS011;59936;51.490;5.436;2023-07-29T12:33:44;3.30;;;2.90;;
64641;SDS011;59936;51.490;5.436;2023-07-29T12:36:12;3.20;;;2.90;;
64641;SDS011;59936;51.490;5.436;2023-07-29T12:38:42;5.40;;;3.00;;
64641;SDS011;59936;51.490;5.436;2023-07-29T12:41:11;3.90;;;3.50;;
64641;SDS011;59936;51.490;5.436;2023-07-29T12:43:40;2.90;;;2.60;;
64641;SDS011;59936;51.490;5.436;2023-07-29T12:48:41;3.00;;;1.80;;
64641;SDS011;59936;51.490;5.436;2023-07-29T12:51:09;3.70;;;1.70;;
64641;SDS011;59936;51.490;5.436;2023-07-29T12:53:38;5.70;;;1.70;;
64641;SDS011;59936;51.490;5.436;2023-07-29T12:56:07;2.00;;;1.80;;
64641;SDS011;59936;51.490;5.436;2023-07-29T12:58:35;1.60;;;1.50;;
64641;SDS011;59936;51.490;5.436;2023-07-29T13:01:04;2.40;;;1.90;;
64641;SDS011;59936;51.490;5.436;2023-07-29T13:03:32;1.70;;;1.60;;
64641;SDS011;59936;51.490;5.436;2023-07-29T13:06:01;1.80;;;1.70;;
64641;SDS011;59936;51.490;5.436;2023-07-29T13:08:30;3.40;;;1.80;;
64641;SDS011;59936;51.490;5.436;2023-07-29T13:10:58;2.30;;;2.10;;
64641;SDS011;59936;51.490;5.436;2023-07-29T13:13:27;2.40;;;2.00;;
64641;SDS011;59936;51.490;5.436;2023-07-29T13:15:56;3.40;;;2.20;;
64641;SDS011;59936;51.490;5.436;2023-07-29T13:18:25;2.20;;;2.10;;
64641;SDS011;59936;51.490;5.436;2023-07-29T13:20:54;2.50;;;2.30;;
64641;SDS011;59936;51.490;5.436;2023-07-29T13:23:23;4.20;;;2.55;;
64641;SDS011;59936;51.490;5.436;2023-07-29T13:25:52;4.80;;;3.00;;
64641;SDS011;59936;51.490;5.436;2023-07-29T13:28:21;4.30;;;2.70;;
64641;SDS011;59936;51.490;5.436;2023-07-29T13:30:49;3.35;;;3.10;;
64641;SDS011;59936;51.490;5.436;2023-07-29T13:33:18;3.20;;;3.00;;
64641;SDS011;59936;51.490;5.436;2023-07-29T13:35:47;3.10;;;2.90;;
64641;SDS011;59936;51.490;5.436;2023-07-29T13:38:15;3.00;;;2.70;;
64641;SDS011;59936;51.490;5.436;2023-07-29T13:40:44;3.00;;;2.80;;
64641;SDS011;59936;51.490;5.436;2023-07-29T13:43:13;2.70;;;2.50;;
64641;SDS011;59936;51.490;5.436;2023-07-29T13:45:42;3.00;;;2.80;;
64641;SDS011;59936;51.490;5.436;2023-07-29T13:48:10;2.70;;;2.50;;
64641;SDS011;59936;51.490;5.436;2023-07-29T13:50:39;2.80;;;2.60;;
64641;SDS011;59936;51.490;5.436;2023-07-29T13:53:08;3.00;;;2.80;;
64641;SDS011;59936;51.490;5.436;2023-07-29T13:55:36;3.20;;;2.90;;
64641;SDS011;59936;51.490;5.436;2023-07-29T13:58:05;2.70;;;2.50;;
64641;SDS011;59936;51.490;5.436;2023-07-29T14:00:33;2.70;;;2.50;;
64641;SDS011;59936;51.490;5.436;2023-07-29T14:03:02;3.60;;;3.30;;
64641;SDS011;59936;51.490;5.436;2023-07-29T14:05:31;3.00;;;2.80;;
64641;SDS011;59936;51.490;5.436;2023-07-29T14:07:59;2.10;;;2.00;;
64641;SDS011;59936;51.490;5.436;2023-07-29T14:10:28;3.80;;;2.35;;
64641;SDS011;59936;51.490;5.436;2023-07-29T14:12:56;2.20;;;2.10;;
64641;SDS011;59936;51.490;5.436;2023-07-29T14:15:25;2.50;;;2.30;;
64641;SDS011;59936;51.490;5.436;2023-07-29T14:17:54;2.60;;;2.40;;
64641;SDS011;59936;51.490;5.436;2023-07-29T14:20:22;2.50;;;2.40;;
64641;SDS011;59936;51.490;5.436;2023-07-29T14:22:51;2.70;;;2.50;;
64641;SDS011;59936;51.490;5.436;2023-07-29T14:25:19;3.20;;;2.10;;
64641;SDS011;59936;51.490;5.436;2023-07-29T14:27:48;2.30;;;2.20;;
64641;SDS011;59936;51.490;5.436;2023-07-29T14:30:17;2.20;;;2.10;;
64641;SDS011;59936;51.490;5.436;2023-07-29T14:32:45;2.40;;;2.20;;
64641;SDS011;59936;51.490;5.436;2023-07-29T14:35:14;2.90;;;2.20;;
64641;SDS011;59936;51.490;5.436;2023-07-29T14:37:42;2.10;;;2.00;;
64641;SDS011;59936;51.490;5.436;2023-07-29T14:40:11;1.90;;;1.80;;
64641;SDS011;59936;51.490;5.436;2023-07-29T14:42:39;2.50;;;2.30;;
64641;SDS011;59936;51.490;5.436;2023-07-29T14:45:08;2.30;;;2.20;;
64641;SDS011;59936;51.490;5.436;2023-07-29T14:47:37;2.10;;;2.00;;
64641;SDS011;59936;51.490;5.436;2023-07-29T14:50:06;2.50;;;2.30;;
64641;SDS011;59936;51.490;5.436;2023-07-29T14:52:34;2.60;;;2.40;;
64641;SDS011;59936;51.490;5.436;2023-07-29T14:55:03;1.80;;;1.70;;
64641;SDS011;59936;51.490;5.436;2023-07-29T14:57:32;2.30;;;2.10;;
64641;SDS011;59936;51.490;5.436;2023-07-29T15:00:01;2.00;;;1.80;;
64641;SDS011;59936;51.490;5.436;2023-07-29T15:02:30;1.90;;;1.80;;
64641;SDS011;59936;51.490;5.436;2023-07-29T15:04:59;1.70;;;1.60;;
64641;SDS011;59936;51.490;5.436;2023-07-29T15:07:27;2.00;;;1.90;;
64641;SDS011;59936;51.490;5.436;2023-07-29T15:09:56;1.85;;;1.75;;
64641;SDS011;59936;51.490;5.436;2023-07-29T15:12:24;1.70;;;1.60;;
64641;SDS011;59936;51.490;5.436;2023-07-29T15:14:53;1.90;;;1.80;;
64641;SDS011;59936;51.490;5.436;2023-07-29T15:17:22;1.90;;;1.80;;
64641;SDS011;59936;51.490;5.436;2023-07-29T15:19:50;1.80;;;1.70;;
64641;SDS011;59936;51.490;5.436;2023-07-29T15:22:19;1.80;;;1.70;;
64641;SDS011;59936;51.490;5.436;2023-07-29T15:24:47;1.80;;;1.50;;
64641;SDS011;59936;51.490;5.436;2023-07-29T15:27:16;2.00;;;1.90;;
64641;SDS011;59936;51.490;5.436;2023-07-29T15:29:44;2.30;;;2.10;;